createdAt,value
2023-02-23T10:59:16.954Z,101191.17
2023-02-23T11:00:16.572Z,101187.95
2023-02-23T11:01:16.412Z,101185.68
2023-02-23T11:02:17.370Z,101183.22
2023-02-23T11:03:16.292Z,101174.85
2023-02-23T11:04:16.311Z,101175.46
2023-02-23T11:05:16.093Z,101173.88
2023-02-23T11:06:16.043Z,101174.14
2023-02-23T11:07:15.970Z,101169.62
2023-02-23T11:08:15.803Z,101168.21
2023-02-23T11:09:15.628Z,101169.87
2023-02-23T11:10:15.532Z,101165.31
2023-02-23T11:11:15.381Z,101163.67
2023-02-23T14:36:00.699Z,1011.06
2023-02-23T14:37:01.763Z,1011.09
2023-02-23T14:38:01.955Z,1011.07
2023-02-23T14:39:02.928Z,1011.08
2023-02-23T14:40:03.002Z,1011.09
2023-02-23T14:41:03.242Z,1011.07
2023-02-23T14:42:03.082Z,1011.04
2023-02-23T14:43:03.132Z,1011.01
2023-02-23T14:44:03.266Z,1011.01
2023-02-23T14:45:03.257Z,1010.98
2023-02-23T14:46:03.376Z,1011.01
2023-02-23T14:47:02.306Z,1011.00
2023-02-23T14:48:02.530Z,1011.02
2023-02-23T14:49:02.527Z,1010.99
2023-02-23T14:50:03.614Z,1010.98
2023-02-23T14:51:11.723Z,1010.98
2023-02-23T14:52:03.656Z,1010.95
2023-02-23T14:53:03.725Z,1010.96
2023-02-23T14:54:03.705Z,1010.94
2023-02-23T14:55:02.740Z,1010.95
2023-02-23T14:56:02.747Z,1010.90
2023-02-23T14:57:02.877Z,1010.91
2023-02-23T14:58:03.946Z,1010.92
2023-02-23T14:59:03.924Z,1010.92
2023-02-23T15:00:03.983Z,1010.93
2023-02-23T15:01:04.032Z,1010.96
2023-02-23T15:02:03.980Z,1011.01
2023-02-23T15:03:02.979Z,1010.98
2023-02-23T15:04:03.078Z,1010.94
2023-02-23T15:05:04.083Z,1010.96
2023-02-23T15:06:04.327Z,1010.98
2023-02-23T15:07:04.058Z,1010.98
2023-02-23T15:08:04.072Z,1011.00
2023-02-23T15:09:04.155Z,1011.03
2023-02-23T15:10:03.114Z,1011.04
2023-02-23T15:11:03.125Z,1011.06
2023-02-23T15:12:04.310Z,1011.06
2023-02-23T15:13:04.182Z,1011.07
2023-02-23T15:14:04.300Z,1011.09
2023-02-23T15:15:04.259Z,1011.08
2023-02-23T15:16:04.296Z,1011.09
2023-02-23T15:17:03.282Z,1011.03
2023-02-23T15:18:04.340Z,1011.08
2023-02-23T15:19:04.319Z,1011.06
2023-02-23T15:20:15.375Z,1011.11
2023-02-23T15:21:04.317Z,1011.08
2023-02-23T15:22:04.391Z,1011.08
2023-02-23T15:23:03.340Z,1011.08
2023-02-23T15:24:04.369Z,1011.10
2023-02-23T15:25:04.356Z,1011.12
2023-02-23T15:26:15.497Z,1011.11
2023-02-23T15:27:04.377Z,1011.12
2023-02-23T15:28:04.386Z,1011.16
2023-02-23T15:29:03.410Z,1011.17
2023-02-23T15:30:04.494Z,1011.13
2023-02-23T15:31:04.599Z,1011.19
2023-02-23T15:32:04.600Z,1011.19
2023-02-23T15:33:04.429Z,1011.20
2023-02-23T15:34:04.490Z,1011.15
2023-02-23T15:35:03.484Z,1011.22
2023-02-23T15:36:04.466Z,1011.20
2023-02-23T15:37:04.453Z,1011.25
2023-02-23T15:38:13.920Z,1011.22
2023-02-23T15:39:04.450Z,1011.26
2023-02-23T15:40:03.523Z,1011.29
2023-02-23T15:41:03.464Z,1011.29
2023-02-23T15:42:04.506Z,1011.29
2023-02-23T15:43:04.435Z,1011.28
2023-02-23T15:44:04.527Z,1011.29
2023-02-23T15:45:04.508Z,1011.34
2023-02-23T15:46:03.448Z,1011.34
2023-02-23T15:47:03.579Z,1011.33
2023-02-23T15:48:04.529Z,1011.39
2023-02-23T15:49:04.560Z,1011.35
2023-02-23T15:50:04.553Z,1011.40
2023-02-23T15:51:04.481Z,1011.38
2023-02-23T15:52:03.667Z,1011.40
2023-02-23T15:53:04.458Z,1011.39
2023-02-23T15:54:04.590Z,1011.39
2023-02-23T15:55:04.562Z,1011.42
2023-02-23T15:56:04.524Z,1011.42
2023-02-23T15:57:04.520Z,1011.39
2023-02-23T15:58:03.513Z,1011.49
2023-02-23T15:59:04.612Z,1011.51
2023-02-23T16:00:04.588Z,1011.53
2023-02-23T16:01:04.568Z,1011.53
2023-02-23T16:02:04.474Z,1011.52
2023-02-23T16:03:03.535Z,1011.52
2023-02-23T16:04:03.493Z,1011.54
2023-02-23T16:05:04.516Z,1011.56
2023-02-23T16:06:04.515Z,1011.57
2023-02-23T16:07:04.535Z,1011.58
2023-02-23T16:08:04.573Z,1011.59
2023-02-23T16:09:03.570Z,1011.58
2023-02-23T16:10:04.513Z,1011.60
2023-02-23T16:11:04.488Z,1011.62
2023-02-23T16:12:04.545Z,1011.65
2023-02-23T16:26:46.448Z,1013.15
